Time;durP1;ratioP1;P1;durP2;ratioP2;P2;SDS_P1;SDS_P2;PMS_P1;PMS_P2;Temp;Humidity;BMP_temperature;BMP_pressure;BME280_temperature;BME280_humidity;BME280_pressure;Samples;Min_cycle;Max_cycle;Signal;HPM_P1;HPM_P2
2024/01/04 00:01:16;;;;;;;;;;;;;;;9.49;83.01;99015.56;7366136;19;19929;-64
2024/01/04 00:03:41;;;;;;;;;;;;;;;9.49;82.67;99010.34;7366366;19;19942;-65
2024/01/04 00:06:07;;;;;;;;;;;;;;;9.50;82.54;99022.47;7369905;19;20357;-65
2024/01/04 00:08:32;;;;;;;;;;;;;;;9.50;82.86;99026.84;7363123;19;19937;-64
2024/01/04 00:11:00;;;;;;;;;;;;;;;9.50;82.91;99021.63;7354273;19;20311;-64
2024/01/04 00:13:25;;;;;;;;;;;;;;;9.50;82.97;99026.84;7370583;19;19930;-64
2024/01/04 00:15:50;;;;;;;;;;;;;;;9.49;82.85;99020.78;7358712;19;19915;-65
2024/01/04 00:18:16;;;;;;;;;;;;;;;9.50;82.93;99026.84;7363256;19;19919;-65
2024/01/04 00:20:42;;;;;;;;;;;;;;;9.51;82.59;99034.56;7369090;19;19948;-65
2024/01/04 00:23:07;;;;;;;;;;;;;;;9.49;82.93;99036.41;7366120;19;19918;-64
2024/01/04 00:25:32;;;;;;;;;;;;;;;9.50;82.99;99026.84;7364401;19;19915;-64
2024/01/04 00:27:57;;;;;;;;;;;;;;;9.51;83.04;99033.72;7357426;19;19930;-65
2024/01/04 00:30:23;;;;;;;;;;;;;;;9.52;82.62;99033.66;7363359;19;19907;-64
2024/01/04 00:32:48;;;;;;;;;;;;;;;9.52;82.59;99035.41;7363914;19;20017;-64
2024/01/04 00:35:14;;;;;;;;;;;;;;;9.53;82.59;99032.75;7367847;19;19926;-64
2024/01/04 00:37:39;;;;;;;;;;;;;;;9.54;82.79;99034.44;7361204;19;19926;-65
2024/01/04 00:40:05;;;;;;;;;;;;;;;9.55;82.62;99041.34;7365621;19;20564;-64
2024/01/04 00:42:30;;;;;;;;;;;;;;;9.55;82.92;99033.53;7366172;19;19914;-64
2024/01/04 00:44:55;;;;;;;;;;;;;;;9.55;82.97;99046.56;7366939;19;19918;-64
2024/01/04 00:47:21;;;;;;;;;;;;;;;9.55;82.75;99046.56;7366583;19;19914;-64
2024/01/04 00:49:46;;;;;;;;;;;;;;;9.56;83.09;99043.03;7368206;19;19923;-65
2024/01/04 00:52:11;;;;;;;;;;;;;;;9.57;82.74;99043.88;7360954;19;19922;-64
2024/01/04 00:54:36;;;;;;;;;;;;;;;9.58;83.06;99056.00;7369151;19;19915;-65
2024/01/04 00:57:02;;;;;;;;;;;;;;;9.58;82.75;99056.84;7362358;19;19925;-64
2024/01/04 00:59:27;;;;;;;;;;;;;;;9.57;82.68;99070.78;7366596;19;19932;-64
2024/01/04 01:01:53;;;;;;;;;;;;;;;9.57;82.49;99060.34;7367903;19;20356;-64
2024/01/04 01:04:18;;;;;;;;;;;;;;;9.58;82.73;99069.88;7362798;19;19933;-64
2024/01/04 01:06:43;;;;;;;;;;;;;;;9.57;82.48;99070.78;7367532;19;19978;-65
2024/01/04 01:09:08;;;;;;;;;;;;;;;9.58;82.83;99072.50;7362903;19;19915;-65
2024/01/04 01:11:34;;;;;;;;;;;;;;;9.58;82.85;99069.88;7366372;19;19919;-64
2024/01/04 01:13:59;;;;;;;;;;;;;;;9.59;82.89;99068.97;7365636;19;19919;-64
2024/01/04 01:16:24;;;;;;;;;;;;;;;9.58;82.41;99061.22;7364730;19;19922;-65
2024/01/04 01:18:50;;;;;;;;;;;;;;;9.58;82.67;99077.69;7353080;19;19925;-65
2024/01/04 01:21:15;;;;;;;;;;;;;;;9.58;82.55;99072.50;7364436;19;19922;-65
2024/01/04 01:23:40;;;;;;;;;;;;;;;9.58;82.59;99082.91;7366087;19;19927;-64
2024/01/04 01:26:06;;;;;;;;;;;;;;;9.58;82.44;99069.88;7363052;19;19927;-64
2024/01/04 01:28:31;;;;;;;;;;;;;;;9.57;82.48;99075.13;7362400;19;19919;-64
2024/01/04 01:30:58;;;;;;;;;;;;;;;9.56;82.48;99086.50;7360980;19;19970;-65
2024/01/04 01:33:24;;;;;;;;;;;;;;;9.55;82.25;99076.97;7365290;19;19918;-64
2024/01/04 01:35:50;;;;;;;;;;;;;;;9.52;82.06;99067.53;7363373;19;20305;-65
2024/01/04 01:38:15;;;;;;;;;;;;;;;9.52;82.03;99083.16;7367963;19;19911;-64
2024/01/04 01:40:40;;;;;;;;;;;;;;;9.48;82.37;99071.22;7364015;19;20380;-64
2024/01/04 01:43:05;;;;;;;;;;;;;;;9.47;81.95;99079.91;7371613;19;19914;-64
2024/01/04 01:45:31;;;;;;;;;;;;;;;9.46;82.41;99080.00;7363586;19;19943;-65
2024/01/04 01:47:56;;;;;;;;;;;;;;;9.45;81.99;99088.72;7365294;19;20363;-63
2024/01/04 01:50:22;;;;;;;;;;;;;;;9.44;82.07;99085.28;7370899;19;19955;-64
2024/01/04 01:52:49;;;;;;;;;;;;;;;9.41;81.94;99090.59;7365234;19;19990;-64
2024/01/04 01:55:16;;;;;;;;;;;;;;;9.35;82.22;99077.84;7361627;19;19927;-65
2024/01/04 01:57:41;;;;;;;;;;;;;;;9.37;81.70;99083.84;7367685;19;19947;-64
2024/01/04 02:00:09;;;;;;;;;;;;;;;9.34;81.58;99090.03;7371527;19;19919;-64
2024/01/04 02:02:35;;;;;;;;;;;;;;;9.31;81.91;99089.31;7363444;19;19990;-65
2024/01/04 02:05:00;;;;;;;;;;;;;;;9.28;81.94;99095.53;7364956;19;19975;-64
2024/01/04 02:07:25;;;;;;;;;;;;;;;9.25;81.93;99094.81;7374907;19;19932;-64
2024/01/04 02:09:51;;;;;;;;;;;;;;;9.24;81.95;99100.94;7361758;19;19927;-64
2024/01/04 02:12:16;;;;;;;;;;;;;;;9.22;81.86;99092.31;7374770;19;20260;-63
2024/01/04 02:14:41;;;;;;;;;;;;;;;9.21;81.82;99098.44;7364839;19;19930;-64
2024/01/04 02:17:07;;;;;;;;;;;;;;;9.19;82.26;99089.84;7365621;19;19936;-64
2024/01/04 02:19:32;;;;;;;;;;;;;;;9.19;82.18;99098.50;7371352;19;19919;-64
2024/01/04 02:21:58;;;;;;;;;;;;;;;9.18;81.95;99098.59;7367367;19;19914;-63
2024/01/04 02:24:23;;;;;;;;;;;;;;;9.16;81.90;99100.41;7363838;19;19925;-64
2024/01/04 02:26:48;;;;;;;;;;;;;;;9.16;82.01;99103.84;7363688;19;19919;-65
2024/01/04 02:29:14;;;;;;;;;;;;;;;9.14;82.01;99102.22;7362337;19;20344;-64
2024/01/04 02:31:39;;;;;;;;;;;;;;;9.15;82.23;99103.91;7357378;19;19922;-64
2024/01/04 02:34:04;;;;;;;;;;;;;;;9.13;82.30;99110.97;7359857;19;20034;-64
2024/01/04 02:36:29;;;;;;;;;;;;;;;9.10;82.21;99107.56;7356913;19;20644;-64
2024/01/04 02:38:55;;;;;;;;;;;;;;;9.08;81.90;99109.38;7359339;19;19939;-63
2024/01/04 02:41:20;;;;;;;;;;;;;;;9.07;81.98;99099.00;7364553;19;19918;-64
2024/01/04 02:43:45;;;;;;;;;;;;;;;9.05;82.22;99109.50;7364997;19;19942;-64
2024/01/04 02:46:10;;;;;;;;;;;;;;;9.03;81.96;99106.13;7364591;19;20352;-64
2024/01/04 02:48:36;;;;;;;;;;;;;;;9.03;81.93;99113.94;7363230;19;20030;-64
2024/01/04 02:51:01;;;;;;;;;;;;;;;9.02;82.19;99119.19;7358755;19;19919;-64
2024/01/04 02:53:26;;;;;;;;;;;;;;;9.01;82.23;99112.28;7368562;19;20015;-64
2024/01/04 02:55:51;;;;;;;;;;;;;;;8.98;81.73;99118.50;7361806;19;19920;-64
2024/01/04 02:58:17;;;;;;;;;;;;;;;8.96;81.71;99122.06;7357010;19;19923;-64
2024/01/04 03:00:43;;;;;;;;;;;;;;;8.93;81.86;99124.81;7363990;19;19947;-64
2024/01/04 03:03:08;;;;;;;;;;;;;;;8.89;81.92;99124.06;7362764;19;20423;-64
2024/01/04 03:05:33;;;;;;;;;;;;;;;8.87;81.49;99130.25;7363230;19;19911;-64
2024/01/04 03:07:58;;;;;;;;;;;;;;;8.82;81.40;99133.06;7358676;19;19938;-64
2024/01/04 03:10:24;;;;;;;;;;;;;;;8.79;81.73;99138.38;7362112;19;19999;-64
2024/01/04 03:12:49;;;;;;;;;;;;;;;8.76;81.81;99133.28;7354665;19;20259;-64
2024/01/04 03:15:14;;;;;;;;;;;;;;;8.74;81.41;99142.91;7361666;19;19957;-64
2024/01/04 03:17:39;;;;;;;;;;;;;;;8.71;81.82;99145.63;7368010;19;20683;-64
2024/01/04 03:20:05;;;;;;;;;;;;;;;8.69;81.51;99157.88;7360698;19;20982;-64
2024/01/04 03:22:30;;;;;;;;;;;;;;;8.67;81.82;99159.66;7359240;19;20263;-64
2024/01/04 03:24:56;;;;;;;;;;;;;;;8.66;81.88;99152.78;7362943;19;19923;-63
2024/01/04 03:27:21;;;;;;;;;;;;;;;8.64;81.94;99158.03;7361981;19;19918;-63
2024/01/04 03:29:47;;;;;;;;;;;;;;;8.62;81.70;99156.41;7357582;19;19923;-64
2024/01/04 03:32:12;;;;;;;;;;;;;;;8.61;81.41;99159.91;7360793;19;19927;-64
2024/01/04 03:34:37;;;;;;;;;;;;;;;8.57;81.37;99170.47;7362106;19;19990;-64
2024/01/04 03:37:02;;;;;;;;;;;;;;;8.54;81.44;99162.75;7356280;19;20836;-63
2024/01/04 03:39:28;;;;;;;;;;;;;;;8.54;81.35;99159.31;7360150;19;20242;-63
2024/01/04 03:41:53;;;;;;;;;;;;;;;8.44;81.25;99158.81;7361331;19;20301;-63
2024/01/04 03:44:18;;;;;;;;;;;;;;;8.47;81.70;99158.72;7361208;19;19927;-64
2024/01/04 03:46:43;;;;;;;;;;;;;;;8.45;81.37;99170.06;7363186;19;19925;-63
2024/01/04 03:49:09;;;;;;;;;;;;;;;8.43;81.29;99175.34;7356668;19;19923;-63
2024/01/04 03:51:34;;;;;;;;;;;;;;;8.41;81.68;99173.69;7369222;19;20347;-62
2024/01/04 03:54:00;;;;;;;;;;;;;;;8.40;81.79;99178.03;7365834;19;19933;-63
2024/01/04 03:56:25;;;;;;;;;;;;;;;8.38;81.66;99179.88;7363019;19;20347;-63
2024/01/04 03:58:51;;;;;;;;;;;;;;;8.37;81.84;99178.19;7376854;19;19918;-63
2024/01/04 04:01:16;;;;;;;;;;;;;;;8.36;81.77;99181.66;7362066;19;19978;-64
2024/01/04 04:03:42;;;;;;;;;;;;;;;8.34;81.37;99175.66;7369317;19;20392;-64
2024/01/04 04:06:07;;;;;;;;;;;;;;;8.32;81.83;99185.28;7364264;19;19915;-63
2024/01/04 04:08:33;;;;;;;;;;;;;;;8.29;81.62;99185.38;7367333;19;20412;-64
2024/01/04 04:10:58;;;;;;;;;;;;;;;8.26;81.61;99175.09;7368378;19;19994;-64
2024/01/04 04:13:24;;;;;;;;;;;;;;;8.24;81.59;99176.91;7361770;19;19918;-63
2024/01/04 04:15:49;;;;;;;;;;;;;;;8.23;81.19;99185.63;7363996;19;20683;-64
2024/01/04 04:18:14;;;;;;;;;;;;;;;8.19;81.32;99186.63;7337678;19;20482;-64
2024/01/04 04:20:40;;;;;;;;;;;;;;;8.17;81.22;99191.91;7370520;19;19923;-64
2024/01/04 04:23:05;;;;;;;;;;;;;;;8.14;81.24;99178.16;7368617;19;19918;-64
2024/01/04 04:25:31;;;;;;;;;;;;;;;8.12;81.55;99188.63;7364240;19;19912;-63
2024/01/04 04:27:56;;;;;;;;;;;;;;;8.10;81.47;99180.00;7370239;19;19923;-64
2024/01/04 04:30:22;;;;;;;;;;;;;;;8.09;81.16;99193.06;7348345;19;19911;-64
2024/01/04 04:32:47;;;;;;;;;;;;;;;8.05;81.28;99187.97;7369265;19;19926;-63
2024/01/04 04:35:12;;;;;;;;;;;;;;;8.03;81.29;99179.41;7363858;19;19939;-64
2024/01/04 04:37:37;;;;;;;;;;;;;;;8.01;81.05;99186.41;7369972;19;19919;-63
2024/01/04 04:40:03;;;;;;;;;;;;;;;7.98;81.18;99183.91;7370947;19;19925;-64
2024/01/04 04:42:28;;;;;;;;;;;;;;;7.97;81.16;99183.97;7372222;19;19915;-63
2024/01/04 04:44:53;;;;;;;;;;;;;;;7.87;80.91;99165.28;7367022;19;19929;-63
2024/01/04 04:47:19;;;;;;;;;;;;;;;7.91;80.96;99189.41;7366989;19;19923;-63
2024/01/04 04:49:44;;;;;;;;;;;;;;;7.88;81.19;99190.34;7358864;19;19966;-64
2024/01/04 04:52:09;;;;;;;;;;;;;;;7.86;80.85;99186.97;7365528;19;19923;-64
2024/01/04 04:54:34;;;;;;;;;;;;;;;7.82;81.21;99180.19;7370806;19;19991;-64
2024/01/04 04:57:00;;;;;;;;;;;;;;;7.79;80.86;99180.28;7364075;19;20720;-63
2024/01/04 04:59:26;;;;;;;;;;;;;;;7.78;81.13;99188.97;7369300;19;20339;-63
2024/01/04 05:01:51;;;;;;;;;;;;;;;7.75;80.76;99173.50;7365692;19;19915;-63
2024/01/04 05:04:16;;;;;;;;;;;;;;;7.73;80.70;99180.50;7361926;19;19922;-64
2024/01/04 05:06:41;;;;;;;;;;;;;;;7.69;80.85;99179.75;7366650;19;19933;-63
2024/01/04 05:09:07;;;;;;;;;;;;;;;7.67;80.71;99183.31;7368671;19;19918;-63
2024/01/04 05:11:32;;;;;;;;;;;;;;;7.64;80.89;99176.47;7364996;19;19952;-63
2024/01/04 05:13:58;;;;;;;;;;;;;;;7.61;80.68;99180.94;7368539;19;20291;-62
2024/01/04 05:16:23;;;;;;;;;;;;;;;7.60;80.86;99179.22;7365941;19;19944;-64
2024/01/04 05:18:48;;;;;;;;;;;;;;;7.57;80.67;99175.00;7358629;19;19926;-63
2024/01/04 05:21:14;;;;;;;;;;;;;;;7.53;80.62;99176.00;7367426;19;19970;-63
2024/01/04 05:23:39;;;;;;;;;;;;;;;7.50;80.93;99174.38;7366686;19;19930;-64
2024/01/04 05:26:04;;;;;;;;;;;;;;;7.49;80.97;99177.84;7363579;19;20431;-63
2024/01/04 05:28:30;;;;;;;;;;;;;;;7.46;81.00;99175.38;7362676;19;19941;-63
2024/01/04 05:30:55;;;;;;;;;;;;;;;7.44;80.72;99179.75;7364581;19;19910;-63
2024/01/04 05:33:20;;;;;;;;;;;;;;;7.41;81.05;99195.47;7366583;19;19938;-63
2024/01/04 05:35:46;;;;;;;;;;;;;;;7.39;80.62;99181.66;7363544;19;20540;-64
2024/01/04 05:38:11;;;;;;;;;;;;;;;7.38;80.97;99179.13;7371311;19;19939;-64
2024/01/04 05:40:36;;;;;;;;;;;;;;;7.36;80.81;99186.13;7361982;19;20364;-63
2024/01/04 05:43:02;;;;;;;;;;;;;;;7.33;80.91;99184.47;7362103;19;20003;-64
2024/01/04 05:45:27;;;;;;;;;;;;;;;7.32;80.84;99174.16;7365480;19;19927;-64
2024/01/04 05:47:52;;;;;;;;;;;;;;;7.28;80.60;99179.44;7363754;19;19919;-62
2024/01/04 05:50:17;;;;;;;;;;;;;;;7.26;80.87;99175.22;7362645;19;19930;-63
2024/01/04 05:52:42;;;;;;;;;;;;;;;7.24;80.82;99197.75;7366942;19;19931;-63
2024/01/04 05:55:08;;;;;;;;;;;;;;;7.23;80.71;99190.88;7362232;19;20606;-64
2024/01/04 05:57:33;;;;;;;;;;;;;;;7.21;80.54;99192.69;7363881;19;20437;-64
2024/01/04 05:59:58;;;;;;;;;;;;;;;7.17;80.94;99191.09;7364105;19;19922;-63
2024/01/04 06:02:26;;;;;;;;;;;;;;;7.15;80.67;99188.56;7359640;19;20597;-63
2024/01/04 06:04:51;;;;;;;;;;;;;;;7.15;80.88;99192.91;7365304;19;19914;-64
2024/01/04 06:07:17;;;;;;;;;;;;;;;7.12;80.88;99196.44;7353299;19;20368;-64
2024/01/04 06:09:42;;;;;;;;;;;;;;;7.10;80.84;99192.19;7364831;19;20447;-63
2024/01/04 06:12:07;;;;;;;;;;;;;;;7.07;80.81;99200.91;7364976;19;19915;-63
2024/01/04 06:14:32;;;;;;;;;;;;;;;7.05;80.91;99196.69;7362164;19;19950;-63
2024/01/04 06:16:58;;;;;;;;;;;;;;;7.02;80.55;99203.66;7364448;19;19923;-64
2024/01/04 06:19:24;;;;;;;;;;;;;;;6.99;80.55;99193.41;7365829;19;19930;-63
2024/01/04 06:21:49;;;;;;;;;;;;;;;6.97;80.52;99197.78;7366321;19;20744;-64
2024/01/04 06:24:14;;;;;;;;;;;;;;;6.95;80.40;99209.97;7365780;19;19926;-64
2024/01/04 06:26:40;;;;;;;;;;;;;;;6.93;80.89;99206.53;7370561;19;20379;-64
2024/01/04 06:29:05;;;;;;;;;;;;;;;6.90;80.72;99213.59;7364330;19;19919;-64
2024/01/04 06:31:30;;;;;;;;;;;;;;;6.87;80.76;99214.53;7364238;19;19919;-63
2024/01/04 06:33:55;;;;;;;;;;;;;;;6.85;80.46;99216.34;7360012;19;19933;-63
2024/01/04 06:36:21;;;;;;;;;;;;;;;6.84;80.33;99229.34;7364578;19;19918;-64
2024/01/04 06:38:47;;;;;;;;;;;;;;;6.82;80.28;99221.59;7359969;19;19933;-64
2024/01/04 06:41:12;;;;;;;;;;;;;;;6.79;80.18;99226.88;7364467;19;20006;-63
2024/01/04 06:43:38;;;;;;;;;;;;;;;6.76;80.32;99222.66;7362133;19;20510;-63
2024/01/04 06:46:03;;;;;;;;;;;;;;;6.74;80.62;99228.75;7362680;19;20043;-64
2024/01/04 06:48:28;;;;;;;;;;;;;;;6.74;80.46;99228.75;7361361;19;19946;-63
2024/01/04 06:50:54;;;;;;;;;;;;;;;6.72;80.17;99233.16;7371354;19;19919;-64
2024/01/04 06:53:19;;;;;;;;;;;;;;;6.71;80.52;99234.06;7362158;19;19950;-64
2024/01/04 06:55:44;;;;;;;;;;;;;;;6.68;80.70;99236.75;7356332;19;19937;-63
2024/01/04 06:58:09;;;;;;;;;;;;;;;6.67;80.57;99235.91;7355834;19;19918;-63
2024/01/04 07:00:38;;;;;;;;;;;;;;;6.66;80.28;99243.72;7360741;19;19923;-63
2024/01/04 07:03:03;;;;;;;;;;;;;;;6.63;80.29;99241.22;7357721;19;19923;-63
2024/01/04 07:05:28;;;;;;;;;;;;;;;6.62;80.16;99244.72;7361944;19;19925;-64
2024/01/04 07:07:54;;;;;;;;;;;;;;;6.60;80.26;99251.69;7363800;19;19931;-63
2024/01/04 07:10:19;;;;;;;;;;;;;;;6.58;80.15;99253.47;7361195;19;19994;-63
2024/01/04 07:12:46;;;;;;;;;;;;;;;6.57;80.48;99256.97;7361974;19;19954;-63
2024/01/04 07:15:11;;;;;;;;;;;;;;;6.55;80.59;99256.19;7364907;19;20339;-63
2024/01/04 07:17:37;;;;;;;;;;;;;;;6.52;80.27;99258.84;7362262;19;19934;-63
2024/01/04 07:20:06;;;;;;;;;;;;;;;6.50;80.69;99267.53;7355736;19;19941;-64
2024/01/04 07:22:31;;;;;;;;;;;;;;;6.49;80.41;99268.44;7363640;19;19927;-63
2024/01/04 07:24:56;;;;;;;;;;;;;;;6.46;80.25;99270.25;7360839;19;19925;-64
2024/01/04 07:27:22;;;;;;;;;;;;;;;6.45;80.48;99274.59;7369327;19;20616;-63
2024/01/04 07:29:47;;;;;;;;;;;;;;;6.42;80.29;99264.28;7366670;19;19975;-63
2024/01/04 07:32:16;;;;;;;;;;;;;;;6.42;80.23;99268.63;7378536;19;19915;-62
2024/01/04 07:34:41;;;;;;;;;;;;;;;6.39;80.64;99264.41;7367434;19;20239;-63
2024/01/04 07:37:07;;;;;;;;;;;;;;;6.37;80.55;99258.38;7369563;19;19925;-64
2024/01/04 07:39:32;;;;;;;;;;;;;;;6.36;80.40;99264.47;7371366;19;19986;-64
2024/01/04 07:41:57;;;;;;;;;;;;;;;6.34;80.05;99261.09;7371598;19;19926;-63
2024/01/04 07:44:23;;;;;;;;;;;;;;;6.32;80.34;99272.38;7368344;19;19933;-63
2024/01/04 07:46:48;;;;;;;;;;;;;;;6.30;80.08;99262.06;7369081;19;19922;-63
2024/01/04 07:49:14;;;;;;;;;;;;;;;6.28;80.12;99261.25;7364110;19;20503;-64
2024/01/04 07:51:39;;;;;;;;;;;;;;;6.27;80.43;99269.06;7369758;19;20009;-64
2024/01/04 07:54:04;;;;;;;;;;;;;;;6.26;80.13;99263.03;7367622;19;19936;-63
2024/01/04 07:56:30;;;;;;;;;;;;;;;6.23;80.39;99265.69;7361573;19;20760;-63
2024/01/04 07:58:55;;;;;;;;;;;;;;;6.21;80.07;99265.75;7366459;19;19982;-63
2024/01/04 08:01:20;;;;;;;;;;;;;;;6.20;80.48;99268.41;7367919;19;19953;-63
2024/01/04 08:03:45;;;;;;;;;;;;;;;6.18;80.03;99275.34;7370261;19;19919;-64
2024/01/04 08:06:10;;;;;;;;;;;;;;;6.18;80.36;99283.13;7366965;19;20370;-64
2024/01/04 08:08:36;;;;;;;;;;;;;;;6.15;80.05;99286.66;7366084;19;20280;-63
2024/01/04 08:11:02;;;;;;;;;;;;;;;6.15;80.16;99285.81;7361522;19;19918;-63
2024/01/04 08:13:27;;;;;;;;;;;;;;;6.13;80.05;99292.78;7364929;19;19927;-63
2024/01/04 08:15:52;;;;;;;;;;;;;;;6.12;80.33;99291.06;7369015;19;19930;-64
2024/01/04 08:18:20;;;;;;;;;;;;;;;6.10;80.33;99292.88;7370932;19;19923;-64
2024/01/04 08:20:45;;;;;;;;;;;;;;;6.09;80.04;99306.72;7364408;19;20343;-63
2024/01/04 08:23:11;;;;;;;;;;;;;;;6.07;80.01;99304.16;7369119;19;19926;-63
2024/01/04 08:25:36;;;;;;;;;;;;;;;6.07;80.01;99303.31;7364004;19;19926;-64
2024/01/04 08:28:02;;;;;;;;;;;;;;;6.05;80.33;99299.91;7365214;19;19964;-63
2024/01/04 08:30:27;;;;;;;;;;;;;;;6.04;80.11;99308.59;7361948;19;19915;-63
2024/01/04 08:32:53;;;;;;;;;;;;;;;6.01;80.05;99312.09;7368756;19;19918;-64
2024/01/04 08:35:18;;;;;;;;;;;;;;;6.01;79.93;99324.22;7363740;19;19927;-64
2024/01/04 08:37:46;;;;;;;;;;;;;;;5.98;80.30;99315.63;7366768;19;19919;-64
2024/01/04 08:40:12;;;;;;;;;;;;;;;5.97;80.16;99318.25;7346163;19;19923;-63
2024/01/04 08:42:37;;;;;;;;;;;;;;;5.96;80.05;99316.53;7367711;19;19942;-62
2024/01/04 08:45:04;;;;;;;;;;;;;;;5.95;80.40;99310.53;7364874;19;19923;-64
2024/01/04 08:47:29;;;;;;;;;;;;;;;5.93;80.01;99317.50;7368579;19;19927;-63
2024/01/04 08:49:58;;;;;;;;;;;;;;;5.92;80.27;99320.94;7364275;19;19925;-63
2024/01/04 08:52:24;;;;;;;;;;;;;;;5.91;80.46;99321.84;7372136;19;19915;-63
2024/01/04 08:54:49;;;;;;;;;;;;;;;5.91;80.22;99328.75;7367973;19;19946;-63
2024/01/04 08:57:14;;;;;;;;;;;;;;;5.90;80.07;99325.31;7364831;19;19911;-63
2024/01/04 08:59:39;;;;;;;;;;;;;;;5.88;80.47;99321.03;7367694;19;19927;-64
2024/01/04 09:02:05;;;;;;;;;;;;;;;5.88;80.38;99314.13;7376593;19;19918;-63
2024/01/04 09:04:30;;;;;;;;;;;;;;;5.87;80.13;99312.41;7362805;19;20641;-63
2024/01/04 09:06:56;;;;;;;;;;;;;;;5.82;80.19;99309.09;7358658;19;19986;-64
2024/01/04 09:09:21;;;;;;;;;;;;;;;5.86;80.54;99315.91;7364542;19;19919;-63
2024/01/04 09:11:48;;;;;;;;;;;;;;;5.86;80.66;99323.66;7364434;19;20352;-64
2024/01/04 09:14:14;;;;;;;;;;;;;;;5.86;80.22;99320.25;7362715;19;19925;-63
2024/01/04 09:16:39;;;;;;;;;;;;;;;5.86;80.55;99321.09;7349022;19;19922;-63
2024/01/04 09:19:05;;;;;;;;;;;;;;;5.87;80.39;99322.78;7360772;19;19923;-64
2024/01/04 09:21:31;;;;;;;;;;;;;;;5.87;80.39;99322.78;7363332;19;20369;-63
2024/01/04 09:23:56;;;;;;;;;;;;;;;5.89;80.64;99333.13;7363354;19;19927;-64
2024/01/04 09:26:21;;;;;;;;;;;;;;;5.90;80.98;99325.31;7362082;19;19925;-63
2024/01/04 09:28:47;;;;;;;;;;;;;;;5.92;80.59;99320.94;7367522;19;19918;-64
2024/01/04 09:31:13;;;;;;;;;;;;;;;5.94;80.81;99324.38;7370865;19;20334;-63
2024/01/04 09:33:39;;;;;;;;;;;;;;;5.97;81.07;99320.84;7366445;19;19933;-64
2024/01/04 09:36:05;;;;;;;;;;;;;;;5.98;80.93;99331.19;7364241;19;20474;-63
2024/01/04 09:38:32;;;;;;;;;;;;;;;6.00;81.20;99332.88;7350979;19;19927;-67
2024/01/04 09:41:00;;;;;;;;;;;;;;;6.02;81.27;99337.13;7360061;19;20700;-68
2024/01/04 09:43:29;;;;;;;;;;;;;;;6.06;81.35;99332.72;7361143;19;20567;-67
2024/01/04 09:45:55;;;;;;;;;;;;;;;6.07;81.08;99334.41;7351842;19;20332;-64
2024/01/04 09:48:22;;;;;;;;;;;;;;;6.09;81.45;99333.50;7360325;19;19927;-65
2024/01/04 09:50:48;;;;;;;;;;;;;;;6.11;81.17;99331.69;7359161;19;19927;-65
2024/01/04 09:53:13;;;;;;;;;;;;;;;6.14;81.18;99333.38;7365009;19;19929;-65
2024/01/04 09:55:40;;;;;;;;;;;;;;;6.16;81.18;99328.97;7361476;19;19928;-65
2024/01/04 09:58:09;;;;;;;;;;;;;;;6.18;81.25;99332.38;7364307;19;19915;-65
2024/01/04 10:00:34;;;;;;;;;;;;;;;6.21;81.11;99333.16;7361686;19;19933;-66
2024/01/04 10:03:02;;;;;;;;;;;;;;;6.26;81.53;99320.06;7362338;19;19946;-65
2024/01/04 10:05:28;;;;;;;;;;;;;;;6.29;81.42;99325.19;7363906;19;19956;-64
2024/01/04 10:07:57;;;;;;;;;;;;;;;6.34;81.84;99333.69;7361925;19;19914;-65
2024/01/04 10:10:23;;;;;;;;;;;;;;;6.41;81.65;99334.34;7361304;19;20257;-66
2024/01/04 10:12:49;;;;;;;;;;;;;;;6.47;81.67;99329.84;7362479;19;19914;-64
2024/01/04 10:15:15;;;;;;;;;;;;;;;6.57;82.28;99329.59;7364674;19;20297;-64
2024/01/04 10:17:41;;;;;;;;;;;;;;;6.67;82.16;99328.44;7359927;19;19936;-66
2024/01/04 10:20:07;;;;;;;;;;;;;;;6.82;82.68;99327.13;7362709;19;20883;-64
2024/01/04 10:22:33;;;;;;;;;;;;;;;6.98;82.86;99329.22;7365013;19;19935;-64
2024/01/04 10:25:08;;;;;;;;;;;;;;;7.17;83.18;99323.47;7342915;19;20745;-63
2024/01/04 10:27:33;;;;;;;;;;;;;;;7.41;83.03;99340.91;7363541;19;19923;-65
2024/01/04 10:30:05;;;;;;;;;;;;;;;7.63;83.34;99335.00;7323830;19;19919;-65
2024/01/04 10:32:30;;;;;;;;;;;;;;;7.85;82.43;99341.19;7369931;19;19931;-64
2024/01/04 10:35:02;;;;;;;;;;;;;;;8.07;82.55;99336.97;7355031;19;19923;-65
2024/01/04 10:37:28;;;;;;;;;;;;;;;8.34;83.10;99339.50;7366009;19;19921;-65
2024/01/04 10:39:57;;;;;;;;;;;;;;;8.57;82.57;99325.72;7365585;19;19948;-65
2024/01/04 10:42:22;;;;;;;;;;;;;;;8.81;83.25;99339.56;7361752;19;19919;-64
2024/01/04 10:44:51;;;;;;;;;;;;;;;9.02;83.00;99333.56;7319838;19;19931;-64
2024/01/04 10:47:17;;;;;;;;;;;;;;;9.23;82.57;99336.25;7361185;19;20359;-65
2024/01/04 10:49:45;;;;;;;;;;;;;;;9.41;81.92;99332.91;7359669;19;19919;-64
2024/01/04 10:52:15;;;;;;;;;;;;;;;9.61;82.21;99327.75;7366332;19;20555;-65
2024/01/04 10:54:41;;;;;;;;;;;;;;;9.85;82.21;99335.47;7358608;19;19929;-64
2024/01/04 10:57:08;;;;;;;;;;;;;;;10.04;82.29;99341.63;7361680;19;20338;-65
2024/01/04 10:59:34;;;;;;;;;;;;;;;10.22;82.23;99333.91;7355257;19;19936;-65
2024/01/04 11:02:00;;;;;;;;;;;;;;;10.37;81.49;99328.91;7360877;19;20349;-64
2024/01/04 11:04:25;;;;;;;;;;;;;;;10.51;81.34;99333.53;7361994;19;19915;-64
2024/01/04 11:06:52;;;;;;;;;;;;;;;10.66;81.01;99329.38;7361617;19;19930;-65
2024/01/04 11:09:18;;;;;;;;;;;;;;;10.79;80.90;99321.84;7358477;19;19998;-65
2024/01/04 11:11:44;;;;;;;;;;;;;;;10.94;81.03;99320.28;7356166;19;20443;-64
2024/01/04 11:14:09;;;;;;;;;;;;;;;11.08;80.25;99317.88;7357001;19;19926;-66
2024/01/04 11:16:43;;;;;;;;;;;;;;;11.25;80.50;99325.75;7352336;19;19929;-65
2024/01/04 11:19:31;;;;;;;;;;;;;;;11.41;80.84;99323.28;7350385;19;20773;-65
2024/01/04 11:21:58;;;;;;;;;;;;;;;11.59;80.04;99319.75;7361380;19;19926;-65
2024/01/04 11:24:27;;;;;;;;;;;;;;;11.75;79.40;99316.41;7360246;19;19956;-64
2024/01/04 11:26:59;;;;;;;;;;;;;;;11.91;79.58;99313.00;7364363;19;19934;-65
2024/01/04 11:29:25;;;;;;;;;;;;;;;12.10;79.59;99317.28;7356361;19;19919;-65
2024/01/04 11:31:51;;;;;;;;;;;;;;;12.24;78.83;99319.19;7356522;19;19922;-64
2024/01/04 11:34:18;;;;;;;;;;;;;;;12.38;79.89;99311.47;7356022;19;20671;-66
2024/01/04 11:36:43;;;;;;;;;;;;;;;12.51;79.30;99302.03;7367183;19;20461;-65
2024/01/04 11:39:09;;;;;;;;;;;;;;;12.65;78.77;99309.16;7356004;19;20662;-65
2024/01/04 11:41:34;;;;;;;;;;;;;;;12.79;78.60;99295.34;7353201;19;19942;-66
2024/01/04 11:44:00;;;;;;;;;;;;;;;12.95;79.07;99301.41;7361410;19;19914;-65
2024/01/04 11:46:26;;;;;;;;;;;;;;;13.09;78.28;99304.13;7353679;19;19922;-65
2024/01/04 11:49:01;;;;;;;;;;;;;;;13.23;78.34;99298.16;7355312;19;19922;-65
2024/01/04 11:51:33;;;;;;;;;;;;;;;13.40;78.26;99302.44;7354673;19;19915;-64
2024/01/04 11:53:58;;;;;;;;;;;;;;;13.57;78.24;99304.94;7358677;19;19922;-65
2024/01/04 11:56:24;;;;;;;;;;;;;;;13.67;77.71;99295.63;7356719;19;20287;-64
2024/01/04 11:58:49;;;;;;;;;;;;;;;13.81;77.76;99305.31;7360834;19;19919;-65
2024/01/04 12:01:21;;;;;;;;;;;;;;;13.93;77.26;99295.88;7356251;19;19914;-65
2024/01/04 12:03:46;;;;;;;;;;;;;;;14.09;77.33;99290.56;7354097;19;20696;-66
2024/01/04 12:06:12;;;;;;;;;;;;;;;14.24;77.69;99289.63;7358768;19;19951;-64
2024/01/04 12:08:37;;;;;;;;;;;;;;;14.37;76.98;99284.50;7358571;19;19925;-64
2024/01/04 12:11:05;;;;;;;;;;;;;;;14.48;77.12;99279.47;7357278;19;20340;-65
2024/01/04 12:13:31;;;;;;;;;;;;;;;14.59;76.75;99273.53;7364496;19;19919;-64
2024/01/04 12:15:57;;;;;;;;;;;;;;;14.68;76.66;99281.69;7371430;19;20400;-64
2024/01/04 12:18:22;;;;;;;;;;;;;;;14.78;76.05;99285.44;7372351;19;20435;-65
2024/01/04 12:20:48;;;;;;;;;;;;;;;14.88;76.62;99282.25;7366079;19;20554;-65
2024/01/04 12:23:13;;;;;;;;;;;;;;;14.96;76.38;99280.81;7363939;19;20335;-65
2024/01/04 12:25:39;;;;;;;;;;;;;;;15.06;76.16;99283.72;7365223;19;19911;-65
2024/01/04 12:28:08;;;;;;;;;;;;;;;15.18;76.05;99282.91;7364647;19;19926;-66
2024/01/04 12:30:36;;;;;;;;;;;;;;;15.28;76.08;99284.00;7358619;19;19923;-65
2024/01/04 12:33:02;;;;;;;;;;;;;;;15.41;75.87;99277.94;7365175;19;20339;-64
2024/01/04 12:35:28;;;;;;;;;;;;;;;15.51;75.81;99268.50;7363838;19;19926;-65
2024/01/04 12:38:00;;;;;;;;;;;;;;;15.60;75.34;99269.69;7362740;19;19922;-65
2024/01/04 12:40:26;;;;;;;;;;;;;;;15.64;75.55;99256.25;7362994;19;19919;-65
2024/01/04 12:42:51;;;;;;;;;;;;;;;15.68;75.20;99256.91;7364224;19;19929;-65
2024/01/04 12:45:17;;;;;;;;;;;;;;;15.70;75.09;99263.75;7360709;19;19919;-64
2024/01/04 12:47:42;;;;;;;;;;;;;;;15.78;75.45;99258.81;7365340;19;20351;-65